sensor_id;sensor_type;location;lat;lon;timestamp;P1;durP1;ratioP1;P2;durP2;ratioP2
80567;SDS011;69922;45.656;25.586;2023-11-21T00:00:44;18.40;;;10.80;;
80567;SDS011;69922;45.656;25.586;2023-11-21T00:02:07;15.90;;;8.50;;
80567;SDS011;69922;45.656;25.586;2023-11-21T00:03:11;14.10;;;9.10;;
80567;SDS011;69922;45.656;25.586;2023-11-21T00:04:17;14.90;;;8.30;;
80567;SDS011;69922;45.656;25.586;2023-11-21T00:05:21;14.10;;;8.30;;
80567;SDS011;69922;45.656;25.586;2023-11-21T00:06:25;12.80;;;8.00;;
80567;SDS011;69922;45.656;25.586;2023-11-21T00:07:29;13.00;;;9.20;;
80567;SDS011;69922;45.656;25.586;2023-11-21T00:08:33;20.00;;;10.10;;
80567;SDS011;69922;45.656;25.586;2023-11-21T00:09:36;17.50;;;11.40;;
80567;SDS011;69922;45.656;25.586;2023-11-21T00:10:40;18.90;;;12.10;;
80567;SDS011;69922;45.656;25.586;2023-11-21T00:11:44;25.50;;;12.60;;
80567;SDS011;69922;45.656;25.586;2023-11-21T00:12:47;22.10;;;12.60;;
80567;SDS011;69922;45.656;25.586;2023-11-21T00:13:51;19.40;;;12.60;;
80567;SDS011;69922;45.656;25.586;2023-11-21T00:14:55;14.80;;;10.30;;
80567;SDS011;69922;45.656;25.586;2023-11-21T00:16:01;16.10;;;9.90;;
80567;SDS011;69922;45.656;25.586;2023-11-21T00:17:04;15.00;;;9.50;;
80567;SDS011;69922;45.656;25.586;2023-11-21T00:18:08;16.40;;;10.90;;
80567;SDS011;69922;45.656;25.586;2023-11-21T00:19:13;14.40;;;10.10;;
80567;SDS011;69922;45.656;25.586;2023-11-21T00:20:16;14.30;;;10.40;;
80567;SDS011;69922;45.656;25.586;2023-11-21T00:21:20;16.70;;;10.70;;
80567;SDS011;69922;45.656;25.586;2023-11-21T00:22:24;15.60;;;10.60;;
80567;SDS011;69922;45.656;25.586;2023-11-21T00:23:27;15.70;;;10.30;;
80567;SDS011;69922;45.656;25.586;2023-11-21T00:24:31;7.50;;;5.70;;
80567;SDS011;69922;45.656;25.586;2023-11-21T00:25:34;12.20;;;8.40;;
80567;SDS011;69922;45.656;25.586;2023-11-21T00:26:38;15.00;;;8.90;;
80567;SDS011;69922;45.656;25.586;2023-11-21T00:27:42;5.90;;;4.20;;
80567;SDS011;69922;45.656;25.586;2023-11-21T00:28:45;4.90;;;3.70;;
80567;SDS011;69922;45.656;25.586;2023-11-21T00:29:49;4.10;;;2.80;;
80567;SDS011;69922;45.656;25.586;2023-11-21T00:30:52;4.20;;;1.90;;
80567;SDS011;69922;45.656;25.586;2023-11-21T00:31:56;2.90;;;1.80;;
80567;SDS011;69922;45.656;25.586;2023-11-21T00:33:00;1.80;;;1.50;;
80567;SDS011;69922;45.656;25.586;2023-11-21T00:34:04;2.00;;;1.70;;
80567;SDS011;69922;45.656;25.586;2023-11-21T00:35:08;1.70;;;1.00;;
80567;SDS011;69922;45.656;25.586;2023-11-21T00:36:12;1.60;;;1.00;;
80567;SDS011;69922;45.656;25.586;2023-11-21T00:37:16;1.60;;;1.20;;
80567;SDS011;69922;45.656;25.586;2023-11-21T00:38:19;1.50;;;0.80;;
80567;SDS011;69922;45.656;25.586;2023-11-21T00:39:23;1.50;;;0.90;;
80567;SDS011;69922;45.656;25.586;2023-11-21T00:40:28;1.80;;;1.00;;
80567;SDS011;69922;45.656;25.586;2023-11-21T00:41:31;1.30;;;0.80;;
80567;SDS011;69922;45.656;25.586;2023-11-21T00:42:35;3.20;;;1.10;;
80567;SDS011;69922;45.656;25.586;2023-11-21T00:43:39;1.70;;;1.10;;
80567;SDS011;69922;45.656;25.586;2023-11-21T00:44:43;1.40;;;1.00;;
80567;SDS011;69922;45.656;25.586;2023-11-21T00:45:47;1.20;;;1.10;;
80567;SDS011;69922;45.656;25.586;2023-11-21T00:46:51;1.90;;;0.90;;
80567;SDS011;69922;45.656;25.586;2023-11-21T00:47:54;1.60;;;1.20;;
80567;SDS011;69922;45.656;25.586;2023-11-21T00:48:58;1.30;;;1.00;;
80567;SDS011;69922;45.656;25.586;2023-11-21T00:50:01;1.20;;;0.80;;
80567;SDS011;69922;45.656;25.586;2023-11-21T00:51:08;2.70;;;1.00;;
80567;SDS011;69922;45.656;25.586;2023-11-21T00:52:12;1.60;;;1.00;;
80567;SDS011;69922;45.656;25.586;2023-11-21T00:53:15;3.70;;;1.10;;
80567;SDS011;69922;45.656;25.586;2023-11-21T00:54:19;2.00;;;0.90;;
80567;SDS011;69922;45.656;25.586;2023-11-21T00:55:23;1.90;;;0.90;;
80567;SDS011;69922;45.656;25.586;2023-11-21T00:56:27;1.90;;;1.20;;
80567;SDS011;69922;45.656;25.586;2023-11-21T00:57:31;1.80;;;1.00;;
80567;SDS011;69922;45.656;25.586;2023-11-21T00:58:34;4.00;;;1.00;;
80567;SDS011;69922;45.656;25.586;2023-11-21T00:59:38;2.10;;;1.30;;
80567;SDS011;69922;45.656;25.586;2023-11-21T01:00:41;2.30;;;0.90;;
80567;SDS011;69922;45.656;25.586;2023-11-21T01:01:46;4.20;;;1.60;;
80567;SDS011;69922;45.656;25.586;2023-11-21T01:02:51;2.20;;;1.00;;
80567;SDS011;69922;45.656;25.586;2023-11-21T01:03:54;3.40;;;1.40;;
80567;SDS011;69922;45.656;25.586;2023-11-21T01:04:58;2.00;;;1.00;;
80567;SDS011;69922;45.656;25.586;2023-11-21T01:06:02;1.70;;;0.80;;
80567;SDS011;69922;45.656;25.586;2023-11-21T01:07:09;1.80;;;1.00;;
80567;SDS011;69922;45.656;25.586;2023-11-21T01:08:13;3.40;;;1.20;;
80567;SDS011;69922;45.656;25.586;2023-11-21T01:09:17;1.20;;;0.70;;
80567;SDS011;69922;45.656;25.586;2023-11-21T01:10:20;2.50;;;0.90;;
80567;SDS011;69922;45.656;25.586;2023-11-21T01:11:24;1.60;;;0.70;;
80567;SDS011;69922;45.656;25.586;2023-11-21T01:12:28;1.40;;;0.90;;
80567;SDS011;69922;45.656;25.586;2023-11-21T01:13:32;1.80;;;0.90;;
80567;SDS011;69922;45.656;25.586;2023-11-21T01:14:36;1.10;;;0.70;;
80567;SDS011;69922;45.656;25.586;2023-11-21T01:15:40;3.20;;;1.50;;
80567;SDS011;69922;45.656;25.586;2023-11-21T01:16:43;4.10;;;1.00;;
80567;SDS011;69922;45.656;25.586;2023-11-21T01:17:48;1.90;;;1.40;;
80567;SDS011;69922;45.656;25.586;2023-11-21T01:18:52;2.00;;;0.80;;
80567;SDS011;69922;45.656;25.586;2023-11-21T01:19:55;1.30;;;0.90;;
80567;SDS011;69922;45.656;25.586;2023-11-21T01:21:01;1.60;;;1.10;;
80567;SDS011;69922;45.656;25.586;2023-11-21T01:22:05;0.90;;;0.90;;
80567;SDS011;69922;45.656;25.586;2023-11-21T01:23:08;1.80;;;0.90;;
80567;SDS011;69922;45.656;25.586;2023-11-21T01:24:12;2.10;;;0.90;;
80567;SDS011;69922;45.656;25.586;2023-11-21T01:25:15;1.20;;;0.80;;
80567;SDS011;69922;45.656;25.586;2023-11-21T01:26:19;1.10;;;0.70;;
80567;SDS011;69922;45.656;25.586;2023-11-21T01:27:22;1.80;;;0.70;;
80567;SDS011;69922;45.656;25.586;2023-11-21T01:28:26;1.70;;;0.60;;
80567;SDS011;69922;45.656;25.586;2023-11-21T01:29:31;2.00;;;1.00;;
80567;SDS011;69922;45.656;25.586;2023-11-21T01:30:34;1.60;;;0.80;;
80567;SDS011;69922;45.656;25.586;2023-11-21T01:31:37;1.50;;;0.80;;
80567;SDS011;69922;45.656;25.586;2023-11-21T01:32:41;1.80;;;1.00;;
80567;SDS011;69922;45.656;25.586;2023-11-21T01:33:46;2.20;;;1.20;;
80567;SDS011;69922;45.656;25.586;2023-11-21T01:34:51;2.80;;;0.80;;
80567;SDS011;69922;45.656;25.586;2023-11-21T01:35:54;1.50;;;0.60;;
80567;SDS011;69922;45.656;25.586;2023-11-21T01:36:59;1.60;;;0.90;;
80567;SDS011;69922;45.656;25.586;2023-11-21T01:38:04;2.30;;;0.70;;
80567;SDS011;69922;45.656;25.586;2023-11-21T01:39:10;1.90;;;1.00;;
80567;SDS011;69922;45.656;25.586;2023-11-21T01:40:17;2.40;;;0.90;;
80567;SDS011;69922;45.656;25.586;2023-11-21T01:41:21;3.20;;;0.80;;
80567;SDS011;69922;45.656;25.586;2023-11-21T01:42:24;2.90;;;1.00;;
80567;SDS011;69922;45.656;25.586;2023-11-21T01:43:28;3.10;;;0.80;;
80567;SDS011;69922;45.656;25.586;2023-11-21T01:44:33;1.50;;;0.80;;
80567;SDS011;69922;45.656;25.586;2023-11-21T01:45:37;1.30;;;0.80;;
80567;SDS011;69922;45.656;25.586;2023-11-21T01:46:41;1.20;;;0.70;;
80567;SDS011;69922;45.656;25.586;2023-11-21T01:47:45;2.30;;;0.90;;
80567;SDS011;69922;45.656;25.586;2023-11-21T01:48:49;1.80;;;1.10;;
80567;SDS011;69922;45.656;25.586;2023-11-21T01:49:55;1.40;;;0.70;;
80567;SDS011;69922;45.656;25.586;2023-11-21T01:50:59;1.50;;;0.80;;
80567;SDS011;69922;45.656;25.586;2023-11-21T01:52:05;1.80;;;0.90;;
80567;SDS011;69922;45.656;25.586;2023-11-21T01:53:10;1.30;;;1.00;;
80567;SDS011;69922;45.656;25.586;2023-11-21T01:54:15;2.90;;;0.80;;
80567;SDS011;69922;45.656;25.586;2023-11-21T01:55:21;2.00;;;1.10;;
80567;SDS011;69922;45.656;25.586;2023-11-21T01:56:27;5.60;;;1.20;;
80567;SDS011;69922;45.656;25.586;2023-11-21T01:57:33;1.60;;;0.90;;
80567;SDS011;69922;45.656;25.586;2023-11-21T01:58:37;2.30;;;1.10;;
80567;SDS011;69922;45.656;25.586;2023-11-21T01:59:41;3.40;;;1.10;;
80567;SDS011;69922;45.656;25.586;2023-11-21T02:00:47;0.90;;;0.80;;
80567;SDS011;69922;45.656;25.586;2023-11-21T02:01:53;2.70;;;1.00;;
80567;SDS011;69922;45.656;25.586;2023-11-21T02:02:58;1.20;;;0.90;;
80567;SDS011;69922;45.656;25.586;2023-11-21T02:04:03;1.70;;;1.10;;
80567;SDS011;69922;45.656;25.586;2023-11-21T02:05:07;2.00;;;1.10;;
80567;SDS011;69922;45.656;25.586;2023-11-21T02:06:11;1.50;;;0.90;;
80567;SDS011;69922;45.656;25.586;2023-11-21T02:07:15;3.60;;;1.50;;
80567;SDS011;69922;45.656;25.586;2023-11-21T02:08:22;1.40;;;0.90;;
80567;SDS011;69922;45.656;25.586;2023-11-21T02:09:26;1.80;;;1.00;;
80567;SDS011;69922;45.656;25.586;2023-11-21T02:10:31;3.40;;;0.80;;
80567;SDS011;69922;45.656;25.586;2023-11-21T02:11:35;1.00;;;0.80;;
80567;SDS011;69922;45.656;25.586;2023-11-21T02:12:41;1.80;;;0.90;;
80567;SDS011;69922;45.656;25.586;2023-11-21T02:13:45;2.10;;;0.90;;
80567;SDS011;69922;45.656;25.586;2023-11-21T02:14:49;2.90;;;0.80;;
80567;SDS011;69922;45.656;25.586;2023-11-21T02:15:53;1.90;;;0.80;;
80567;SDS011;69922;45.656;25.586;2023-11-21T02:16:56;1.10;;;0.60;;
80567;SDS011;69922;45.656;25.586;2023-11-21T02:18:00;1.60;;;0.80;;
80567;SDS011;69922;45.656;25.586;2023-11-21T02:19:07;2.90;;;1.20;;
80567;SDS011;69922;45.656;25.586;2023-11-21T02:20:16;2.30;;;1.30;;
80567;SDS011;69922;45.656;25.586;2023-11-21T02:21:20;1.70;;;0.80;;
80567;SDS011;69922;45.656;25.586;2023-11-21T02:22:24;1.50;;;1.00;;
80567;SDS011;69922;45.656;25.586;2023-11-21T02:23:32;2.50;;;0.80;;
80567;SDS011;69922;45.656;25.586;2023-11-21T02:24:37;1.40;;;0.70;;
80567;SDS011;69922;45.656;25.586;2023-11-21T02:25:44;1.00;;;0.70;;
80567;SDS011;69922;45.656;25.586;2023-11-21T02:26:49;1.80;;;0.80;;
80567;SDS011;69922;45.656;25.586;2023-11-21T02:27:55;2.00;;;0.80;;
80567;SDS011;69922;45.656;25.586;2023-11-21T02:29:00;1.40;;;0.60;;
80567;SDS011;69922;45.656;25.586;2023-11-21T02:30:08;1.10;;;0.70;;
80567;SDS011;69922;45.656;25.586;2023-11-21T02:31:15;2.40;;;0.70;;
80567;SDS011;69922;45.656;25.586;2023-11-21T02:32:21;1.40;;;0.80;;
80567;SDS011;69922;45.656;25.586;2023-11-21T02:33:24;1.10;;;0.70;;
80567;SDS011;69922;45.656;25.586;2023-11-21T02:34:28;3.90;;;0.80;;
80567;SDS011;69922;45.656;25.586;2023-11-21T02:35:32;1.80;;;0.90;;
80567;SDS011;69922;45.656;25.586;2023-11-21T02:36:35;1.60;;;0.70;;
80567;SDS011;69922;45.656;25.586;2023-11-21T02:37:39;2.80;;;0.90;;
80567;SDS011;69922;45.656;25.586;2023-11-21T02:38:43;0.90;;;0.80;;
80567;SDS011;69922;45.656;25.586;2023-11-21T02:39:48;0.80;;;0.50;;
80567;SDS011;69922;45.656;25.586;2023-11-21T02:40:51;1.40;;;0.70;;
80567;SDS011;69922;45.656;25.586;2023-11-21T02:41:55;1.60;;;1.20;;
80567;SDS011;69922;45.656;25.586;2023-11-21T02:42:59;0.70;;;0.60;;
80567;SDS011;69922;45.656;25.586;2023-11-21T02:44:04;3.80;;;1.00;;
80567;SDS011;69922;45.656;25.586;2023-11-21T02:45:12;0.80;;;0.60;;
80567;SDS011;69922;45.656;25.586;2023-11-21T02:46:19;2.20;;;0.80;;
80567;SDS011;69922;45.656;25.586;2023-11-21T02:47:23;2.10;;;1.00;;
80567;SDS011;69922;45.656;25.586;2023-11-21T02:48:26;1.60;;;0.80;;
80567;SDS011;69922;45.656;25.586;2023-11-21T02:49:30;1.50;;;1.00;;
80567;SDS011;69922;45.656;25.586;2023-11-21T02:50:34;1.20;;;0.90;;
80567;SDS011;69922;45.656;25.586;2023-11-21T02:51:38;2.30;;;0.90;;
80567;SDS011;69922;45.656;25.586;2023-11-21T02:52:42;1.00;;;0.80;;
80567;SDS011;69922;45.656;25.586;2023-11-21T02:53:46;0.90;;;0.70;;
80567;SDS011;69922;45.656;25.586;2023-11-21T02:54:49;3.40;;;1.00;;
80567;SDS011;69922;45.656;25.586;2023-11-21T02:55:53;1.90;;;1.00;;
80567;SDS011;69922;45.656;25.586;2023-11-21T02:56:57;2.70;;;1.30;;
80567;SDS011;69922;45.656;25.586;2023-11-21T02:58:01;2.40;;;1.30;;
80567;SDS011;69922;45.656;25.586;2023-11-21T02:59:06;1.50;;;0.70;;
80567;SDS011;69922;45.656;25.586;2023-11-21T03:00:10;1.40;;;1.00;;
80567;SDS011;69922;45.656;25.586;2023-11-21T03:01:16;2.70;;;1.30;;
80567;SDS011;69922;45.656;25.586;2023-11-21T03:02:20;1.70;;;0.90;;
80567;SDS011;69922;45.656;25.586;2023-11-21T03:03:24;1.20;;;0.90;;
80567;SDS011;69922;45.656;25.586;2023-11-21T03:04:28;2.70;;;1.20;;
80567;SDS011;69922;45.656;25.586;2023-11-21T03:05:32;2.10;;;1.30;;
80567;SDS011;69922;45.656;25.586;2023-11-21T03:06:37;2.90;;;1.40;;
80567;SDS011;69922;45.656;25.586;2023-11-21T03:07:41;2.40;;;1.30;;
80567;SDS011;69922;45.656;25.586;2023-11-21T03:08:44;2.10;;;1.60;;
80567;SDS011;69922;45.656;25.586;2023-11-21T03:09:48;2.00;;;1.50;;
80567;SDS011;69922;45.656;25.586;2023-11-21T03:10:52;5.40;;;1.40;;
80567;SDS011;69922;45.656;25.586;2023-11-21T03:11:56;2.80;;;1.30;;
80567;SDS011;69922;45.656;25.586;2023-11-21T03:13:00;3.10;;;1.50;;
80567;SDS011;69922;45.656;25.586;2023-11-21T03:14:03;2.30;;;1.10;;
80567;SDS011;69922;45.656;25.586;2023-11-21T03:15:08;3.80;;;1.40;;
80567;SDS011;69922;45.656;25.586;2023-11-21T03:16:15;1.90;;;1.00;;
80567;SDS011;69922;45.656;25.586;2023-11-21T03:17:20;2.40;;;1.10;;
80567;SDS011;69922;45.656;25.586;2023-11-21T03:18:23;1.30;;;1.00;;
80567;SDS011;69922;45.656;25.586;2023-11-21T03:19:28;3.20;;;1.30;;
80567;SDS011;69922;45.656;25.586;2023-11-21T03:20:32;3.30;;;1.10;;
80567;SDS011;69922;45.656;25.586;2023-11-21T03:21:37;2.10;;;1.40;;
80567;SDS011;69922;45.656;25.586;2023-11-21T03:22:40;2.90;;;1.40;;
80567;SDS011;69922;45.656;25.586;2023-11-21T03:23:43;1.90;;;1.40;;
80567;SDS011;69922;45.656;25.586;2023-11-21T03:24:47;3.90;;;1.10;;
80567;SDS011;69922;45.656;25.586;2023-11-21T03:25:50;3.80;;;1.40;;
80567;SDS011;69922;45.656;25.586;2023-11-21T03:26:54;2.00;;;1.70;;
80567;SDS011;69922;45.656;25.586;2023-11-21T03:27:58;3.00;;;1.40;;
80567;SDS011;69922;45.656;25.586;2023-11-21T03:29:01;2.90;;;1.40;;
80567;SDS011;69922;45.656;25.586;2023-11-21T03:30:08;2.90;;;1.40;;
80567;SDS011;69922;45.656;25.586;2023-11-21T03:31:13;2.80;;;1.30;;
80567;SDS011;69922;45.656;25.586;2023-11-21T03:32:20;3.40;;;1.30;;
80567;SDS011;69922;45.656;25.586;2023-11-21T03:33:24;2.90;;;1.40;;
80567;SDS011;69922;45.656;25.586;2023-11-21T03:34:27;3.00;;;1.20;;
80567;SDS011;69922;45.656;25.586;2023-11-21T03:35:30;1.50;;;1.20;;
80567;SDS011;69922;45.656;25.586;2023-11-21T03:36:34;4.00;;;1.00;;
80567;SDS011;69922;45.656;25.586;2023-11-21T03:37:38;3.70;;;1.80;;
80567;SDS011;69922;45.656;25.586;2023-11-21T03:38:44;4.30;;;1.50;;
80567;SDS011;69922;45.656;25.586;2023-11-21T03:39:48;2.20;;;1.30;;
80567;SDS011;69922;45.656;25.586;2023-11-21T03:40:52;3.30;;;1.60;;
80567;SDS011;69922;45.656;25.586;2023-11-21T03:41:55;3.40;;;1.60;;
80567;SDS011;69922;45.656;25.586;2023-11-21T03:42:59;3.40;;;1.50;;
80567;SDS011;69922;45.656;25.586;2023-11-21T03:44:03;4.10;;;1.70;;
80567;SDS011;69922;45.656;25.586;2023-11-21T03:45:09;2.10;;;1.40;;
80567;SDS011;69922;45.656;25.586;2023-11-21T03:46:14;2.00;;;1.10;;
80567;SDS011;69922;45.656;25.586;2023-11-21T03:47:18;3.80;;;1.50;;
80567;SDS011;69922;45.656;25.586;2023-11-21T03:48:22;2.90;;;1.30;;
80567;SDS011;69922;45.656;25.586;2023-11-21T03:49:26;3.20;;;1.50;;
80567;SDS011;69922;45.656;25.586;2023-11-21T03:50:32;2.00;;;1.70;;
80567;SDS011;69922;45.656;25.586;2023-11-21T03:51:35;2.50;;;1.40;;
80567;SDS011;69922;45.656;25.586;2023-11-21T03:52:39;2.50;;;1.30;;
80567;SDS011;69922;45.656;25.586;2023-11-21T03:53:43;1.50;;;1.10;;
80567;SDS011;69922;45.656;25.586;2023-11-21T03:54:47;2.70;;;1.80;;
80567;SDS011;69922;45.656;25.586;2023-11-21T03:55:50;3.20;;;1.40;;
80567;SDS011;69922;45.656;25.586;2023-11-21T03:56:53;4.40;;;1.40;;
80567;SDS011;69922;45.656;25.586;2023-11-21T03:57:57;3.40;;;1.60;;
80567;SDS011;69922;45.656;25.586;2023-11-21T03:59:01;3.40;;;1.70;;
80567;SDS011;69922;45.656;25.586;2023-11-21T04:00:08;4.50;;;2.10;;
80567;SDS011;69922;45.656;25.586;2023-11-21T04:01:15;3.10;;;1.80;;
80567;SDS011;69922;45.656;25.586;2023-11-21T04:02:24;4.70;;;1.50;;
80567;SDS011;69922;45.656;25.586;2023-11-21T04:03:28;3.60;;;1.70;;
80567;SDS011;69922;45.656;25.586;2023-11-21T04:04:32;4.50;;;1.80;;
80567;SDS011;69922;45.656;25.586;2023-11-21T04:05:36;4.50;;;2.10;;
80567;SDS011;69922;45.656;25.586;2023-11-21T04:06:39;5.70;;;2.20;;
80567;SDS011;69922;45.656;25.586;2023-11-21T04:07:43;5.60;;;2.30;;
80567;SDS011;69922;45.656;25.586;2023-11-21T04:08:46;3.80;;;1.80;;
80567;SDS011;69922;45.656;25.586;2023-11-21T04:09:50;4.40;;;1.90;;
80567;SDS011;69922;45.656;25.586;2023-11-21T04:10:53;4.00;;;2.50;;
80567;SDS011;69922;45.656;25.586;2023-11-21T04:11:57;4.20;;;2.40;;
80567;SDS011;69922;45.656;25.586;2023-11-21T04:13:02;3.50;;;1.90;;
80567;SDS011;69922;45.656;25.586;2023-11-21T04:14:05;5.00;;;2.10;;
80567;SDS011;69922;45.656;25.586;2023-11-21T04:15:10;4.00;;;2.00;;
80567;SDS011;69922;45.656;25.586;2023-11-21T04:16:17;4.20;;;1.90;;
80567;SDS011;69922;45.656;25.586;2023-11-21T04:17:21;3.10;;;1.90;;
80567;SDS011;69922;45.656;25.586;2023-11-21T04:18:25;4.30;;;2.00;;
80567;SDS011;69922;45.656;25.586;2023-11-21T04:19:28;3.60;;;2.10;;
80567;SDS011;69922;45.656;25.586;2023-11-21T04:20:32;3.30;;;2.00;;
80567;SDS011;69922;45.656;25.586;2023-11-21T04:21:35;3.20;;;2.00;;
80567;SDS011;69922;45.656;25.586;2023-11-21T04:22:38;4.90;;;2.50;;
80567;SDS011;69922;45.656;25.586;2023-11-21T04:23:49;2.80;;;1.80;;
80567;SDS011;69922;45.656;25.586;2023-11-21T04:24:53;4.90;;;2.00;;
80567;SDS011;69922;45.656;25.586;2023-11-21T04:25:58;4.40;;;2.30;;
80567;SDS011;69922;45.656;25.586;2023-11-21T04:27:02;4.10;;;2.20;;
80567;SDS011;69922;45.656;25.586;2023-11-21T04:28:06;2.90;;;2.20;;
80567;SDS011;69922;45.656;25.586;2023-11-21T04:29:09;3.30;;;2.10;;
80567;SDS011;69922;45.656;25.586;2023-11-21T04:30:14;3.60;;;2.30;;
80567;SDS011;69922;45.656;25.586;2023-11-21T04:31:19;4.90;;;2.50;;
80567;SDS011;69922;45.656;25.586;2023-11-21T04:32:22;4.40;;;3.00;;
80567;SDS011;69922;45.656;25.586;2023-11-21T04:33:26;3.70;;;2.20;;
80567;SDS011;69922;45.656;25.586;2023-11-21T04:34:30;3.40;;;2.00;;
80567;SDS011;69922;45.656;25.586;2023-11-21T04:35:33;1.90;;;1.40;;
80567;SDS011;69922;45.656;25.586;2023-11-21T04:36:37;3.00;;;1.70;;
80567;SDS011;69922;45.656;25.586;2023-11-21T04:37:41;2.80;;;1.70;;
80567;SDS011;69922;45.656;25.586;2023-11-21T04:38:45;3.20;;;1.60;;
80567;SDS011;69922;45.656;25.586;2023-11-21T04:39:48;2.60;;;1.50;;
80567;SDS011;69922;45.656;25.586;2023-11-21T04:40:52;3.30;;;1.70;;
80567;SDS011;69922;45.656;25.586;2023-11-21T04:41:55;3.30;;;2.00;;
80567;SDS011;69922;45.656;25.586;2023-11-21T04:42:59;2.00;;;1.40;;
80567;SDS011;69922;45.656;25.586;2023-11-21T04:44:04;4.40;;;2.10;;
80567;SDS011;69922;45.656;25.586;2023-11-21T04:45:09;4.00;;;2.30;;
80567;SDS011;69922;45.656;25.586;2023-11-21T04:46:14;6.30;;;2.50;;
80567;SDS011;69922;45.656;25.586;2023-11-21T04:47:17;5.00;;;2.60;;
80567;SDS011;69922;45.656;25.586;2023-11-21T04:48:22;3.90;;;2.10;;
80567;SDS011;69922;45.656;25.586;2023-11-21T04:49:25;4.40;;;2.30;;
80567;SDS011;69922;45.656;25.586;2023-11-21T04:50:29;3.00;;;2.10;;
80567;SDS011;69922;45.656;25.586;2023-11-21T04:51:33;4.30;;;2.30;;
80567;SDS011;69922;45.656;25.586;2023-11-21T04:52:37;5.10;;;3.20;;
80567;SDS011;69922;45.656;25.586;2023-11-21T04:53:40;3.50;;;2.10;;
80567;SDS011;69922;45.656;25.586;2023-11-21T04:54:43;4.60;;;2.30;;
80567;SDS011;69922;45.656;25.586;2023-11-21T04:55:46;6.20;;;3.60;;
80567;SDS011;69922;45.656;25.586;2023-11-21T04:56:50;5.30;;;2.50;;
80567;SDS011;69922;45.656;25.586;2023-11-21T04:57:54;4.40;;;2.30;;
80567;SDS011;69922;45.656;25.586;2023-11-21T04:58:57;5.70;;;3.40;;
80567;SDS011;69922;45.656;25.586;2023-11-21T05:00:01;3.40;;;2.60;;
80567;SDS011;69922;45.656;25.586;2023-11-21T05:01:09;3.70;;;2.60;;
80567;SDS011;69922;45.656;25.586;2023-11-21T05:02:12;4.30;;;2.50;;
80567;SDS011;69922;45.656;25.586;2023-11-21T05:03:36;5.70;;;2.30;;
80567;SDS011;69922;45.656;25.586;2023-11-21T05:04:42;6.50;;;2.70;;
80567;SDS011;69922;45.656;25.586;2023-11-21T05:05:46;4.60;;;2.70;;
80567;SDS011;69922;45.656;25.586;2023-11-21T05:06:49;4.70;;;2.80;;
80567;SDS011;69922;45.656;25.586;2023-11-21T05:07:53;5.20;;;2.60;;
80567;SDS011;69922;45.656;25.586;2023-11-21T05:08:57;5.20;;;2.70;;
80567;SDS011;69922;45.656;25.586;2023-11-21T05:10:01;3.20;;;2.10;;
80567;SDS011;69922;45.656;25.586;2023-11-21T05:11:06;2.90;;;1.70;;
80567;SDS011;69922;45.656;25.586;2023-11-21T05:12:13;4.20;;;2.00;;
80567;SDS011;69922;45.656;25.586;2023-11-21T05:13:17;4.40;;;2.60;;
80567;SDS011;69922;45.656;25.586;2023-11-21T05:14:21;6.00;;;2.90;;
80567;SDS011;69922;45.656;25.586;2023-11-21T05:15:25;5.30;;;3.00;;
80567;SDS011;69922;45.656;25.586;2023-11-21T05:16:30;6.20;;;3.60;;
80567;SDS011;69922;45.656;25.586;2023-11-21T05:17:33;5.60;;;2.90;;
80567;SDS011;69922;45.656;25.586;2023-11-21T05:18:37;3.40;;;2.70;;
80567;SDS011;69922;45.656;25.586;2023-11-21T05:19:42;4.00;;;2.10;;
80567;SDS011;69922;45.656;25.586;2023-11-21T05:20:51;4.60;;;2.40;;
80567;SDS011;69922;45.656;25.586;2023-11-21T05:21:56;4.30;;;2.90;;
80567;SDS011;69922;45.656;25.586;2023-11-21T05:23:01;6.80;;;3.20;;
80567;SDS011;69922;45.656;25.586;2023-11-21T05:24:06;5.00;;;2.90;;
80567;SDS011;69922;45.656;25.586;2023-11-21T05:25:10;5.40;;;3.10;;
80567;SDS011;69922;45.656;25.586;2023-11-21T05:26:14;5.10;;;3.10;;
80567;SDS011;69922;45.656;25.586;2023-11-21T05:27:18;6.90;;;2.80;;
80567;SDS011;69922;45.656;25.586;2023-11-21T05:28:21;5.20;;;3.00;;
80567;SDS011;69922;45.656;25.586;2023-11-21T05:29:24;3.80;;;2.50;;
80567;SDS011;69922;45.656;25.586;2023-11-21T05:30:29;5.20;;;3.10;;
80567;SDS011;69922;45.656;25.586;2023-11-21T05:31:32;4.50;;;2.40;;
80567;SDS011;69922;45.656;25.586;2023-11-21T05:32:36;7.30;;;3.20;;
80567;SDS011;69922;45.656;25.586;2023-11-21T05:33:40;6.50;;;3.10;;
80567;SDS011;69922;45.656;25.586;2023-11-21T05:34:44;7.20;;;3.10;;
80567;SDS011;69922;45.656;25.586;2023-11-21T05:35:47;6.80;;;4.00;;
80567;SDS011;69922;45.656;25.586;2023-11-21T05:36:50;10.40;;;4.80;;
80567;SDS011;69922;45.656;25.586;2023-11-21T05:37:54;8.80;;;5.50;;
80567;SDS011;69922;45.656;25.586;2023-11-21T05:38:57;10.80;;;5.40;;
80567;SDS011;69922;45.656;25.586;2023-11-21T05:40:01;10.00;;;5.40;;
80567;SDS011;69922;45.656;25.586;2023-11-21T05:41:08;12.50;;;5.60;;
80567;SDS011;69922;45.656;25.586;2023-11-21T05:42:13;11.20;;;4.80;;
80567;SDS011;69922;45.656;25.586;2023-11-21T05:43:16;9.60;;;5.40;;
80567;SDS011;69922;45.656;25.586;2023-11-21T05:44:20;9.90;;;5.60;;
80567;SDS011;69922;45.656;25.586;2023-11-21T05:45:25;10.20;;;6.00;;
80567;SDS011;69922;45.656;25.586;2023-11-21T05:46:31;11.50;;;5.90;;
80567;SDS011;69922;45.656;25.586;2023-11-21T05:47:34;9.40;;;5.60;;
80567;SDS011;69922;45.656;25.586;2023-11-21T05:48:39;8.90;;;6.20;;
80567;SDS011;69922;45.656;25.586;2023-11-21T05:49:42;13.70;;;5.90;;
80567;SDS011;69922;45.656;25.586;2023-11-21T05:50:47;14.10;;;7.20;;
80567;SDS011;69922;45.656;25.586;2023-11-21T05:51:52;10.30;;;6.40;;
80567;SDS011;69922;45.656;25.586;2023-11-21T05:52:56;11.30;;;7.10;;
80567;SDS011;69922;45.656;25.586;2023-11-21T05:54:02;16.80;;;7.30;;
80567;SDS011;69922;45.656;25.586;2023-11-21T05:55:07;16.00;;;7.30;;
80567;SDS011;69922;45.656;25.586;2023-11-21T05:56:11;16.50;;;7.10;;
80567;SDS011;69922;45.656;25.586;2023-11-21T05:57:15;14.10;;;7.20;;
80567;SDS011;69922;45.656;25.586;2023-11-21T05:58:18;13.10;;;6.90;;
80567;SDS011;69922;45.656;25.586;2023-11-21T05:59:23;11.10;;;7.10;;
80567;SDS011;69922;45.656;25.586;2023-11-21T06:00:26;15.10;;;6.20;;
80567;SDS011;69922;45.656;25.586;2023-11-21T06:01:30;12.50;;;7.40;;
80567;SDS011;69922;45.656;25.586;2023-11-21T06:02:33;15.80;;;7.50;;
80567;SDS011;69922;45.656;25.586;2023-11-21T06:03:38;13.00;;;7.60;;
80567;SDS011;69922;45.656;25.586;2023-11-21T06:04:41;17.00;;;8.30;;
80567;SDS011;69922;45.656;25.586;2023-11-21T06:05:45;16.10;;;7.70;;
80567;SDS011;69922;45.656;25.586;2023-11-21T06:06:49;13.60;;;8.20;;
80567;SDS011;69922;45.656;25.586;2023-11-21T06:07:54;13.20;;;7.80;;
80567;SDS011;69922;45.656;25.586;2023-11-21T06:09:01;15.60;;;8.20;;
80567;SDS011;69922;45.656;25.586;2023-11-21T06:10:06;16.90;;;8.00;;
80567;SDS011;69922;45.656;25.586;2023-11-21T06:11:13;15.60;;;8.20;;
80567;SDS011;69922;45.656;25.586;2023-11-21T06:12:16;18.00;;;8.30;;
80567;SDS011;69922;45.656;25.586;2023-11-21T06:13:20;14.70;;;6.80;;
80567;SDS011;69922;45.656;25.586;2023-11-21T06:14:26;10.00;;;6.30;;
80567;SDS011;69922;45.656;25.586;2023-11-21T06:15:30;14.00;;;6.30;;
80567;SDS011;69922;45.656;25.586;2023-11-21T06:16:34;12.70;;;6.20;;
80567;SDS011;69922;45.656;25.586;2023-11-21T06:17:38;11.60;;;6.40;;
80567;SDS011;69922;45.656;25.586;2023-11-21T06:18:42;15.10;;;6.60;;
80567;SDS011;69922;45.656;25.586;2023-11-21T06:19:47;14.30;;;7.70;;
80567;SDS011;69922;45.656;25.586;2023-11-21T06:20:51;12.00;;;6.90;;